Time;durP1;ratioP1;P1;durP2;ratioP2;P2;SDS_P1;SDS_P2;PMS_P1;PMS_P2;Temp;Humidity;BMP_temperature;BMP_pressure;BME280_temperature;BME280_humidity;BME280_pressure;Samples;Min_cycle;Max_cycle;Signal;HPM_P1;HPM_P2
2022/07/10 00:01:32;;;;;;;6.25;3.40;;;22.10;61.90;;;;;;4876468;29;20061;-71
2022/07/10 00:03:58;;;;;;;5.85;3.17;;;22.00;61.80;;;;;;4876323;29;20493;-71
2022/07/10 00:06:24;;;;;;;6.72;2.90;;;22.10;61.80;;;;;;4877564;29;20025;-71
2022/07/10 00:08:49;;;;;;;7.35;3.63;;;22.00;61.80;;;;;;4877681;29;20040;-71
2022/07/10 00:11:15;;;;;;;7.80;3.70;;;22.10;61.90;;;;;;4860675;29;20078;-71
2022/07/10 00:13:41;;;;;;;7.35;3.40;;;22.00;61.80;;;;;;4879346;29;20397;-71
2022/07/10 00:16:07;;;;;;;7.28;3.08;;;22.00;61.80;;;;;;4879746;29;20413;-71
2022/07/10 00:18:32;;;;;;;6.97;3.17;;;22.00;61.80;;;;;;4880871;29;20092;-71
2022/07/10 00:20:58;;;;;;;7.68;3.80;;;22.00;62.40;;;;;;4894884;29;20033;-71
2022/07/10 00:23:24;;;;;;;7.60;3.45;;;22.00;61.80;;;;;;4880700;29;20040;-71
2022/07/10 00:25:50;;;;;;;8.70;3.53;;;22.00;61.80;;;;;;4880666;29;20041;-71
2022/07/10 00:28:15;;;;;;;7.82;3.00;;;22.00;62.30;;;;;;4880600;29;20203;-72
2022/07/10 00:30:41;;;;;;;6.93;3.45;;;22.00;61.80;;;;;;4880419;29;20025;-71
2022/07/10 00:33:07;;;;;;;6.18;3.30;;;22.00;61.70;;;;;;4880538;29;20043;-71
2022/07/10 00:35:33;;;;;;;6.57;2.83;;;22.00;61.70;;;;;;4880701;29;20025;-72
2022/07/10 00:37:58;;;;;;;8.02;3.47;;;22.00;61.70;;;;;;4880279;29;20025;-71
2022/07/10 00:40:24;;;;;;;7.03;3.10;;;22.00;61.70;;;;;;4880262;29;20033;-72
2022/07/10 00:42:50;;;;;;;7.13;2.97;;;22.00;61.70;;;;;;4880353;29;20115;-72
2022/07/10 00:45:16;;;;;;;6.40;3.17;;;22.00;61.70;;;;;;4880429;29;20036;-71
2022/07/10 00:47:42;;;;;;;6.95;3.03;;;22.00;61.70;;;;;;4880127;29;20029;-72
2022/07/10 00:50:08;;;;;;;6.07;3.15;;;22.00;61.70;;;;;;4879923;29;20031;-72
2022/07/10 00:52:38;;;;;;;6.88;3.25;;;22.00;61.70;;;;;;4880271;29;20033;-71
2022/07/10 00:55:06;;;;;;;5.65;3.28;;;22.00;61.70;;;;;;4894484;29;20080;-71
2022/07/10 00:57:32;;;;;;;5.75;3.03;;;22.00;61.60;;;;;;4879932;29;20025;-71
2022/07/10 00:59:58;;;;;;;6.88;3.40;;;22.00;61.70;;;;;;4879772;29;20029;-71
2022/07/10 01:02:24;;;;;;;7.40;3.22;;;22.00;61.60;;;;;;4879844;29;20033;-71
2022/07/10 01:04:50;;;;;;;6.43;2.80;;;22.00;61.60;;;;;;4880230;29;20025;-71
2022/07/10 01:07:16;;;;;;;6.55;2.90;;;21.90;61.50;;;;;;4879951;29;20394;-72
2022/07/10 01:09:42;;;;;;;5.63;3.03;;;22.00;61.60;;;;;;4879672;29;20025;-72
2022/07/10 01:12:10;;;;;;;6.40;2.95;;;21.90;61.60;;;;;;4879926;29;20060;-72
2022/07/10 01:14:37;;;;;;;6.20;3.05;;;22.00;61.60;;;;;;4878587;29;20045;-72
2022/07/10 01:17:04;;;;;;;7.25;3.30;;;22.00;61.60;;;;;;4879760;29;20060;-72
2022/07/10 01:19:30;;;;;;;6.65;3.28;;;22.00;61.60;;;;;;4894072;29;20033;-72
2022/07/10 01:21:56;;;;;;;5.47;2.58;;;22.00;61.60;;;;;;4878587;29;20037;-72
2022/07/10 01:24:22;;;;;;;6.10;2.83;;;22.00;61.50;;;;;;4878612;29;20453;-71
2022/07/10 01:26:48;;;;;;;7.38;3.10;;;21.90;61.50;;;;;;4878534;29;20481;-72
2022/07/10 01:29:13;;;;;;;6.70;2.92;;;21.90;61.50;;;;;;4879545;29;20033;-72
2022/07/10 01:31:39;;;;;;;6.90;3.08;;;21.90;61.50;;;;;;4879264;29;20498;-72
2022/07/10 01:34:10;;;;;;;6.80;2.70;;;22.00;62.10;;;;;;4878573;29;20061;-71
2022/07/10 01:36:37;;;;;;;6.82;3.20;;;21.90;61.50;;;;;;4878366;29;20401;-71
2022/07/10 01:39:04;;;;;;;6.72;2.97;;;22.00;61.50;;;;;;4877960;29;20502;-72
2022/07/10 01:41:30;;;;;;;6.05;2.90;;;22.00;61.40;;;;;;4879186;29;20044;-72
2022/07/10 01:43:56;;;;;;;6.30;2.90;;;22.00;61.40;;;;;;4879652;29;20406;-71
2022/07/10 01:46:22;;;;;;;6.53;2.83;;;22.00;61.40;;;;;;4878051;29;20040;-71
2022/07/10 01:48:48;;;;;;;7.63;3.42;;;22.00;61.40;;;;;;4879213;29;20025;-71
2022/07/10 01:51:14;;;;;;;5.18;2.72;;;22.00;61.30;;;;;;4878891;29;20033;-72
2022/07/10 01:53:40;;;;;;;7.15;3.05;;;22.00;61.30;;;;;;4879133;29;20039;-71
2022/07/10 01:56:10;;;;;;;5.38;2.83;;;22.00;61.30;;;;;;4879158;29;20029;-72
2022/07/10 01:58:36;;;;;;;7.45;3.13;;;22.00;61.30;;;;;;4879054;29;20092;-72
2022/07/10 02:01:03;;;;;;;5.53;2.90;;;22.00;61.30;;;;;;4878868;29;20037;-72
2022/07/10 02:06:13;;;;;;;7.88;3.35;;;22.00;61.20;;;;;;4877774;29;20538;-71
2022/07/10 02:08:39;;;;;;;7.35;3.03;;;22.00;61.20;;;;;;4878870;29;20021;-71
2022/07/10 02:11:05;;;;;;;7.55;3.00;;;22.00;61.20;;;;;;4878592;29;20482;-71
2022/07/10 02:13:31;;;;;;;7.07;3.47;;;22.00;61.20;;;;;;4878807;29;20036;-71
2022/07/10 02:15:58;;;;;;;7.03;2.78;;;22.00;61.20;;;;;;4878776;29;20079;-71
2022/07/10 02:18:24;;;;;;;7.20;2.88;;;21.90;61.20;;;;;;4878689;29;20033;-72
2022/07/10 02:20:51;;;;;;;7.45;3.28;;;22.00;61.20;;;;;;4878428;29;20522;-72
2022/07/10 02:23:17;;;;;;;6.15;2.75;;;22.00;61.30;;;;;;4877593;29;20037;-71
2022/07/10 02:25:44;;;;;;;6.55;2.75;;;21.90;61.20;;;;;;4877493;29;20137;-71
2022/07/10 02:28:10;;;;;;;5.60;2.60;;;21.90;61.20;;;;;;4877242;29;20375;-71
2022/07/10 02:30:36;;;;;;;5.55;2.50;;;22.00;61.30;;;;;;4878232;29;20025;-72
2022/07/10 02:33:02;;;;;;;7.18;3.10;;;21.90;61.20;;;;;;4878470;29;20035;-71
2022/07/10 02:35:28;;;;;;;5.05;2.50;;;21.90;61.20;;;;;;4878107;29;20025;-71
2022/07/10 02:37:54;;;;;;;5.47;2.58;;;21.90;61.10;;;;;;4878237;29;20037;-71
2022/07/10 02:40:20;;;;;;;5.38;2.83;;;21.90;61.20;;;;;;4877988;29;20113;-71
2022/07/10 02:42:45;;;;;;;4.72;2.60;;;21.90;61.20;;;;;;4878390;29;20093;-71
2022/07/10 02:45:11;;;;;;;4.78;2.40;;;21.90;61.10;;;;;;4878688;29;20029;-71
2022/07/10 02:47:37;;;;;;;5.22;2.85;;;21.90;61.20;;;;;;4878346;29;20021;-71
2022/07/10 02:50:03;;;;;;;4.10;2.30;;;21.90;61.20;;;;;;4876816;29;20061;-72
2022/07/10 02:52:32;;;;;;;4.28;2.05;;;21.90;61.20;;;;;;4878225;29;20021;-71
2022/07/10 02:54:58;;;;;;;5.07;2.72;;;21.90;61.20;;;;;;4878165;29;20033;-72
2022/07/10 02:57:24;;;;;;;5.78;2.50;;;21.90;61.20;;;;;;4878219;29;20390;-71
2022/07/10 02:59:50;;;;;;;5.13;2.50;;;21.90;61.20;;;;;;4877973;29;20490;-72
2022/07/10 03:02:16;;;;;;;6.43;2.80;;;21.90;61.10;;;;;;4876968;29;20033;-72
2022/07/10 03:04:42;;;;;;;6.85;2.83;;;21.90;61.20;;;;;;4876797;29;20037;-71
2022/07/10 03:07:08;;;;;;;5.28;2.85;;;21.90;61.10;;;;;;4878240;29;20032;-71
2022/07/10 03:09:34;;;;;;;4.90;2.40;;;21.90;61.10;;;;;;4877799;29;20040;-72
2022/07/10 03:12:00;;;;;;;5.13;2.47;;;21.90;61.10;;;;;;4878145;29;20025;-71
2022/07/10 03:14:26;;;;;;;5.85;2.85;;;21.90;61.70;;;;;;4878010;29;20085;-71
2022/07/10 03:16:51;;;;;;;5.18;2.40;;;21.90;61.20;;;;;;4878054;29;20029;-71
2022/07/10 03:19:17;;;;;;;4.20;2.40;;;21.90;61.10;;;;;;4877967;29;20104;-71
2022/07/10 03:21:44;;;;;;;5.20;2.53;;;21.90;61.10;;;;;;4877728;29;20437;-71
2022/07/10 03:24:10;;;;;;;5.57;2.63;;;21.90;61.20;;;;;;4876684;29;20029;-71
2022/07/10 03:26:35;;;;;;;4.32;2.10;;;21.90;61.10;;;;;;4876872;29;20036;-71
2022/07/10 03:29:01;;;;;;;4.82;2.25;;;21.90;61.10;;;;;;4861362;29;20081;-71
2022/07/10 03:31:27;;;;;;;6.22;2.78;;;21.90;61.10;;;;;;4877656;29;20108;-71
2022/07/10 03:33:53;;;;;;;5.70;2.50;;;21.90;61.10;;;;;;4877948;29;20037;-71
2022/07/10 03:36:19;;;;;;;5.40;2.53;;;21.90;61.10;;;;;;4877835;29;20033;-71
2022/07/10 03:38:46;;;;;;;5.43;2.47;;;21.90;61.10;;;;;;4877633;29;20064;-71
2022/07/10 03:41:13;;;;;;;5.50;2.47;;;21.90;61.10;;;;;;4876406;29;20159;-71
2022/07/10 03:43:38;;;;;;;4.82;2.53;;;21.90;61.00;;;;;;4878031;29;20125;-71
2022/07/10 03:46:04;;;;;;;7.40;2.78;;;21.90;61.00;;;;;;4878107;29;20112;-71
2022/07/10 03:48:30;;;;;;;4.90;2.28;;;21.90;61.00;;;;;;4893916;29;20079;-71
2022/07/10 03:50:56;;;;;;;5.45;2.30;;;21.90;60.90;;;;;;4881018;29;20033;-71
2022/07/10 03:53:22;;;;;;;5.40;2.70;;;21.90;60.90;;;;;;4881748;29;20033;-71
2022/07/10 03:55:48;;;;;;;5.63;2.53;;;21.90;60.90;;;;;;4881268;29;20036;-71
2022/07/10 03:58:13;;;;;;;3.85;2.40;;;21.90;60.80;;;;;;4881015;29;20036;-71
2022/07/10 04:00:42;;;;;;;5.18;2.50;;;21.90;60.80;;;;;;4879685;29;20480;-72
2022/07/10 04:03:08;;;;;;;4.75;2.00;;;21.90;61.40;;;;;;4881160;29;20040;-71
2022/07/10 04:05:34;;;;;;;4.55;2.30;;;21.90;60.80;;;;;;4880022;29;20073;-71
2022/07/10 04:08:01;;;;;;;4.85;2.28;;;21.90;60.80;;;;;;4879941;29;20029;-72
2022/07/10 04:10:29;;;;;;;4.90;2.35;;;21.90;60.80;;;;;;4863988;29;20033;-71
2022/07/10 04:12:55;;;;;;;6.53;2.47;;;21.90;60.80;;;;;;4881046;29;20260;-71
2022/07/10 04:15:21;;;;;;;7.38;2.75;;;21.90;60.80;;;;;;4880932;29;20033;-72
2022/07/10 04:17:51;;;;;;;4.47;2.30;;;21.90;60.80;;;;;;4879640;29;20033;-71
2022/07/10 04:20:17;;;;;;;4.93;2.30;;;21.90;60.80;;;;;;4879510;29;20133;-72
2022/07/10 04:22:44;;;;;;;3.92;2.35;;;21.90;60.80;;;;;;4881007;29;20045;-71
2022/07/10 04:25:10;;;;;;;4.80;2.40;;;21.90;60.80;;;;;;4880834;29;20501;-72
2022/07/10 04:27:36;;;;;;;5.10;2.50;;;21.90;60.80;;;;;;4880703;29;20439;-71
2022/07/10 04:30:02;;;;;;;5.10;2.38;;;21.90;60.80;;;;;;4880421;29;20078;-71
2022/07/10 04:32:28;;;;;;;5.53;2.70;;;21.90;60.80;;;;;;4880623;29;20032;-72
2022/07/10 04:34:57;;;;;;;4.82;2.28;;;21.90;60.80;;;;;;4880516;29;20025;-72
2022/07/10 04:37:22;;;;;;;5.00;2.37;;;21.90;60.80;;;;;;4894874;29;20371;-72
2022/07/10 04:39:48;;;;;;;5.13;2.67;;;21.90;60.80;;;;;;4880148;29;20044;-71
2022/07/10 04:42:14;;;;;;;6.03;2.63;;;21.90;60.80;;;;;;4880523;29;20052;-72
2022/07/10 04:44:40;;;;;;;6.45;2.50;;;21.90;61.40;;;;;;4880424;29;20028;-71
2022/07/10 04:47:06;;;;;;;5.13;2.30;;;21.90;60.80;;;;;;4880674;29;20367;-71
2022/07/10 04:49:32;;;;;;;4.55;2.40;;;21.90;60.80;;;;;;4879972;29;20025;-72
2022/07/10 04:51:58;;;;;;;4.28;2.17;;;21.90;60.90;;;;;;4880165;29;20036;-72
2022/07/10 04:54:25;;;;;;;4.47;2.30;;;21.90;60.80;;;;;;4880241;29;20033;-72
2022/07/10 04:56:51;;;;;;;6.05;2.60;;;21.90;60.80;;;;;;4880245;29;20029;-71
2022/07/10 04:59:17;;;;;;;5.75;2.25;;;21.90;60.80;;;;;;4879809;29;20371;-71
2022/07/10 05:01:43;;;;;;;4.40;2.25;;;21.90;61.40;;;;;;4879904;29;20116;-71
2022/07/10 05:04:08;;;;;;;4.47;2.25;;;21.90;60.80;;;;;;4878704;29;20040;-71
2022/07/10 05:06:34;;;;;;;5.63;3.03;;;21.80;60.70;;;;;;4880153;29;20153;-71
2022/07/10 05:09:01;;;;;;;4.70;2.50;;;21.90;60.80;;;;;;4880016;29;20467;-71
2022/07/10 05:11:27;;;;;;;4.88;2.35;;;21.90;60.80;;;;;;4878436;29;20089;-72
2022/07/10 05:13:52;;;;;;;5.32;2.28;;;21.90;60.80;;;;;;4879906;29;20486;-72
2022/07/10 05:16:18;;;;;;;5.22;2.42;;;21.90;60.70;;;;;;4879910;29;20107;-71
2022/07/10 05:18:44;;;;;;;3.75;2.35;;;21.90;60.80;;;;;;4879670;29;20033;-71
2022/07/10 05:21:11;;;;;;;6.25;2.33;;;21.90;60.80;;;;;;4878534;29;20187;-72
2022/07/10 05:23:38;;;;;;;5.35;2.15;;;21.90;60.80;;;;;;4879673;29;20084;-72
2022/07/10 05:26:05;;;;;;;3.53;1.88;;;21.80;60.80;;;;;;4878671;29;20040;-72
2022/07/10 05:28:31;;;;;;;4.40;2.15;;;21.80;60.70;;;;;;4878485;29;20037;-72
2022/07/10 05:30:56;;;;;;;4.68;2.30;;;21.90;60.80;;;;;;4879333;29;20036;-72
2022/07/10 05:33:22;;;;;;;3.75;2.35;;;21.90;60.70;;;;;;4879717;29;20120;-72
2022/07/10 05:35:48;;;;;;;3.83;2.40;;;21.90;60.80;;;;;;4878336;29;20037;-71
2022/07/10 05:38:14;;;;;;;5.60;2.20;;;21.90;60.70;;;;;;4878066;29;20041;-71
2022/07/10 05:40:40;;;;;;;4.32;2.25;;;21.90;60.70;;;;;;4879139;29;20040;-71
2022/07/10 05:43:06;;;;;;;4.68;2.33;;;21.90;60.70;;;;;;4879380;29;20125;-71
2022/07/10 05:45:32;;;;;;;4.50;2.42;;;21.90;60.70;;;;;;4879335;29;20025;-71
2022/07/10 05:47:57;;;;;;;3.50;1.92;;;21.90;60.70;;;;;;4879178;29;20036;-72
2022/07/10 05:50:23;;;;;;;5.68;2.20;;;21.90;60.70;;;;;;4878990;29;20219;-71
2022/07/10 05:52:49;;;;;;;6.07;2.33;;;21.90;60.70;;;;;;4862492;29;20036;-72
2022/07/10 05:55:15;;;;;;;4.28;2.47;;;21.90;60.60;;;;;;4879160;29;20055;-72
2022/07/10 05:57:41;;;;;;;4.03;2.13;;;21.90;60.60;;;;;;4879040;29;20033;-72
2022/07/10 06:00:08;;;;;;;6.45;2.50;;;21.90;60.60;;;;;;4877607;29;20585;-72
2022/07/10 06:02:40;;;;;;;4.38;2.30;;;21.90;60.50;;;;;;4893298;29;20029;-71
2022/07/10 06:05:06;;;;;;;3.92;1.90;;;21.90;60.50;;;;;;4878988;29;20229;-72
2022/07/10 06:07:34;;;;;;;6.13;2.55;;;21.90;60.40;;;;;;4878848;29;20033;-72
2022/07/10 06:10:00;;;;;;;5.70;2.38;;;21.90;60.40;;;;;;4878527;29;20039;-71
2022/07/10 06:12:25;;;;;;;5.05;2.17;;;21.90;60.40;;;;;;4878582;29;20025;-72
2022/07/10 06:14:51;;;;;;;5.97;2.53;;;21.90;60.40;;;;;;4878771;29;20055;-72
2022/07/10 06:17:17;;;;;;;4.57;2.10;;;21.90;60.40;;;;;;4878639;29;20028;-72
2022/07/10 06:19:43;;;;;;;4.57;2.38;;;21.90;60.40;;;;;;4878445;29;20096;-72
2022/07/10 06:24:53;;;;;;;3.92;2.10;;;21.90;60.40;;;;;;4879003;29;20041;-72
2022/07/10 06:27:19;;;;;;;4.68;2.00;;;21.90;60.40;;;;;;4877290;29;20033;-72
2022/07/10 06:29:45;;;;;;;4.45;2.13;;;21.90;60.40;;;;;;4878234;29;20447;-72
2022/07/10 06:32:11;;;;;;;4.57;2.20;;;21.90;60.40;;;;;;4877645;29;20059;-72
2022/07/10 06:34:37;;;;;;;5.53;2.17;;;21.90;60.40;;;;;;4878527;29;20057;-72
2022/07/10 06:37:03;;;;;;;4.68;2.20;;;21.90;60.40;;;;;;4878514;29;20052;-72
2022/07/10 06:39:36;;;;;;;4.75;2.28;;;21.90;60.40;;;;;;4877165;29;20041;-71
2022/07/10 06:42:03;;;;;;;4.32;2.15;;;21.90;60.40;;;;;;4877219;29;20455;-72
2022/07/10 06:44:29;;;;;;;5.10;2.53;;;21.90;60.50;;;;;;4878362;29;20065;-72
2022/07/10 06:49:40;;;;;;;4.20;2.22;;;21.90;60.40;;;;;;4878015;29;20410;-72
2022/07/10 06:52:06;;;;;;;3.20;2.00;;;21.90;60.40;;;;;;4877135;29;20029;-72
2022/07/10 06:54:32;;;;;;;5.03;2.20;;;21.90;60.40;;;;;;4877102;29;20033;-72
2022/07/10 06:56:59;;;;;;;3.67;2.33;;;21.90;60.40;;;;;;4877154;29;20397;-73
2022/07/10 06:59:24;;;;;;;5.25;2.47;;;21.90;60.40;;;;;;4878388;29;20490;-72
2022/07/10 07:01:50;;;;;;;5.05;2.17;;;21.90;60.40;;;;;;4877942;29;20085;-72
2022/07/10 07:04:16;;;;;;;3.85;2.13;;;21.90;60.40;;;;;;4876959;29;20037;-72
2022/07/10 07:06:42;;;;;;;3.67;1.83;;;21.90;60.40;;;;;;4861510;29;20033;-73
2022/07/10 07:09:08;;;;;;;4.75;2.05;;;21.90;60.40;;;;;;4877952;29;20032;-72
2022/07/10 07:11:33;;;;;;;5.80;2.30;;;21.90;60.40;;;;;;4877814;29;20025;-72
2022/07/10 07:13:59;;;;;;;4.50;2.20;;;21.80;60.40;;;;;;4877137;29;20493;-72
2022/07/10 07:16:38;;;;;;;4.60;2.40;;;21.80;60.30;;;;;;4876785;29;20037;-72
2022/07/10 07:19:05;;;;;;;4.63;2.10;;;21.80;60.30;;;;;;4878111;29;20033;-72
2022/07/10 07:24:18;;;;;;;2.97;1.85;;;21.90;60.40;;;;;;4881791;29;20044;-72
2022/07/10 07:26:47;;;;;;;5.55;2.38;;;21.90;60.60;;;;;;4882024;29;20386;-72
2022/07/10 07:29:16;;;;;;;5.63;2.40;;;21.80;60.30;;;;;;4881609;29;20196;-72
2022/07/10 07:31:42;;;;;;;4.32;2.30;;;21.80;60.20;;;;;;4849976;29;20033;-72
2022/07/10 07:34:08;;;;;;;4.43;2.28;;;21.80;60.30;;;;;;4880433;29;20450;-71
2022/07/10 07:36:34;;;;;;;4.50;2.45;;;21.80;60.30;;;;;;4881620;29;20033;-72
2022/07/10 07:39:01;;;;;;;5.85;2.38;;;21.80;60.30;;;;;;4880447;29;20039;-72
2022/07/10 07:41:26;;;;;;;3.40;2.08;;;21.80;60.20;;;;;;4880114;29;20044;-72
2022/07/10 07:43:52;;;;;;;4.30;1.83;;;21.90;60.30;;;;;;4881382;29;20044;-72
2022/07/10 07:46:19;;;;;;;4.30;2.13;;;21.80;60.20;;;;;;4881362;29;20108;-72
2022/07/10 07:48:45;;;;;;;3.58;2.13;;;21.90;60.30;;;;;;4881378;29;20040;-72
2022/07/10 07:51:11;;;;;;;4.10;2.10;;;21.80;60.20;;;;;;4895526;29;20394;-72
2022/07/10 07:53:37;;;;;;;4.70;2.08;;;21.90;60.20;;;;;;4881298;29;20037;-72
2022/07/10 07:56:03;;;;;;;5.00;2.28;;;21.90;60.20;;;;;;4881355;29;20371;-72
2022/07/10 07:58:29;;;;;;;4.70;2.38;;;21.90;60.10;;;;;;4881103;29;20033;-72
2022/07/10 08:00:56;;;;;;;4.53;1.95;;;21.90;60.10;;;;;;4879795;29;20044;-71
2022/07/10 08:03:22;;;;;;;4.53;2.45;;;21.90;60.00;;;;;;4881101;29;20029;-72
2022/07/10 08:05:49;;;;;;;5.07;2.78;;;21.90;59.90;;;;;;4881098;29;20032;-72
2022/07/10 08:08:15;;;;;;;3.75;2.00;;;22.00;59.90;;;;;;4879892;29;20033;-71
2022/07/10 08:10:40;;;;;;;3.47;2.03;;;22.00;60.00;;;;;;4879518;29;20036;-72
2022/07/10 08:13:06;;;;;;;4.65;2.30;;;22.00;60.00;;;;;;4879789;29;20478;-72
2022/07/10 08:15:34;;;;;;;3.88;2.00;;;21.90;60.00;;;;;;4864349;29;20041;-72
2022/07/10 08:18:02;;;;;;;4.38;2.13;;;21.90;59.90;;;;;;4880758;29;20456;-72
2022/07/10 08:20:28;;;;;;;5.22;2.00;;;21.90;59.90;;;;;;4880826;29;20036;-72
2022/07/10 08:22:54;;;;;;;4.75;2.00;;;22.00;60.00;;;;;;4880763;29;20555;-72
2022/07/10 08:25:20;;;;;;;4.63;2.42;;;21.90;60.00;;;;;;4880753;29;20398;-72
2022/07/10 08:27:46;;;;;;;2.97;1.92;;;21.90;59.90;;;;;;4880466;29;20025;-72
2022/07/10 08:30:12;;;;;;;3.75;2.10;;;21.90;59.90;;;;;;4880251;29;20109;-71
2022/07/10 08:32:38;;;;;;;4.10;2.05;;;21.90;59.90;;;;;;4881119;29;20041;-72
2022/07/10 08:35:06;;;;;;;4.95;2.38;;;21.90;59.90;;;;;;4880074;29;20062;-72
2022/07/10 08:37:42;;;;;;;5.43;2.30;;;21.90;59.90;;;;;;4880502;29;20037;-72
2022/07/10 08:40:14;;;;;;;3.42;1.92;;;21.90;59.90;;;;;;4880314;29;20025;-72
2022/07/10 08:42:41;;;;;;;5.07;2.35;;;21.90;60.10;;;;;;4894878;29;20029;-72
2022/07/10 08:45:07;;;;;;;4.18;2.13;;;21.90;60.00;;;;;;4880737;29;20097;-72
2022/07/10 08:47:38;;;;;;;3.83;1.92;;;21.90;59.90;;;;;;4880356;29;20056;-71
2022/07/10 08:50:05;;;;;;;4.05;1.73;;;21.90;59.90;;;;;;4880008;29;20029;-72
2022/07/10 08:53:24;;;;;;;5.28;2.28;;;21.90;60.00;;;;;;4880598;29;20029;-72
2022/07/10 08:55:50;;;;;;;4.80;2.10;;;21.90;59.90;;;;;;4840958;29;20126;-71
2022/07/10 08:58:17;;;;;;;4.55;2.10;;;21.90;59.90;;;;;;4877166;29;20037;-72
2022/07/10 09:00:43;;;;;;;4.38;2.03;;;21.90;59.90;;;;;;4880079;29;20033;-72
2022/07/10 09:03:09;;;;;;;5.95;2.30;;;21.90;59.90;;;;;;4880078;29;20502;-72
2022/07/10 09:05:35;;;;;;;4.25;2.15;;;21.90;59.90;;;;;;4880076;29;20040;-73
2022/07/10 09:08:01;;;;;;;5.25;2.10;;;21.80;59.90;;;;;;4894301;29;20064;-72
2022/07/10 09:10:28;;;;;;;4.22;2.00;;;21.80;59.90;;;;;;4878542;29;20065;-72
2022/07/10 09:13:04;;;;;;;5.53;2.08;;;21.80;59.90;;;;;;4847894;29;20501;-72
2022/07/10 09:15:34;;;;;;;5.05;2.63;;;21.90;60.00;;;;;;4879978;29;20423;-71
2022/07/10 09:18:02;;;;;;;5.78;2.15;;;21.90;60.00;;;;;;4879914;29;20037;-71
2022/07/10 09:20:34;;;;;;;4.90;2.28;;;21.80;59.90;;;;;;4894221;29;20519;-71
2022/07/10 09:23:17;;;;;;;3.95;2.00;;;21.90;59.90;;;;;;4880354;29;20037;-72
2022/07/10 09:25:44;;;;;;;5.00;2.22;;;21.80;59.90;;;;;;4879909;29;20549;-71
2022/07/10 09:28:09;;;;;;;4.57;2.20;;;21.80;59.90;;;;;;4878744;29;20228;-71
2022/07/10 09:30:39;;;;;;;4.05;2.13;;;21.90;60.00;;;;;;4879530;29;20128;-72
2022/07/10 09:33:25;;;;;;;4.47;2.00;;;21.80;59.90;;;;;;4879667;29;20037;-72
2022/07/10 09:36:11;;;;;;;5.55;2.20;;;21.90;60.00;;;;;;4879731;29;20042;-71
2022/07/10 09:38:39;;;;;;;5.03;2.28;;;21.90;59.90;;;;;;4879585;29;20184;-71
2022/07/10 09:41:14;;;;;;;5.82;2.55;;;21.90;60.00;;;;;;4879127;29;20112;-72
2022/07/10 09:44:00;;;;;;;3.45;2.08;;;21.90;59.90;;;;;;4879373;29;20141;-72
2022/07/10 09:46:37;;;;;;;3.85;1.90;;;21.80;59.80;;;;;;4878519;29;20068;-72
2022/07/10 09:49:10;;;;;;;6.15;2.38;;;21.80;59.90;;;;;;4879259;29;20499;-71
2022/07/10 09:51:39;;;;;;;3.53;2.05;;;21.80;59.90;;;;;;4878986;29;20060;-72
2022/07/10 09:54:07;;;;;;;2.97;1.75;;;21.80;59.90;;;;;;4879292;29;20036;-72
2022/07/10 09:56:54;;;;;;;3.97;2.35;;;21.80;59.90;;;;;;4877969;29;20112;-72
2022/07/10 09:59:21;;;;;;;4.00;2.30;;;21.80;59.90;;;;;;4877856;29;20029;-72
2022/07/10 10:01:48;;;;;;;4.43;2.00;;;21.80;59.80;;;;;;4878886;29;20044;-71
2022/07/10 10:04:19;;;;;;;3.78;2.03;;;21.80;59.80;;;;;;4877905;29;20037;-72
2022/07/10 10:06:52;;;;;;;2.88;1.65;;;21.80;59.90;;;;;;4878006;29;20457;-72
2022/07/10 10:09:24;;;;;;;2.92;2.05;;;21.90;59.80;;;;;;4862685;29;20040;-72
2022/07/10 10:11:56;;;;;;;5.55;2.40;;;21.90;59.80;;;;;;4878771;29;20072;-72
2022/07/10 10:14:23;;;;;;;5.82;2.38;;;21.90;59.70;;;;;;4893627;29;20479;-71
2022/07/10 10:16:51;;;;;;;3.53;1.90;;;21.90;59.70;;;;;;4878790;29;20088;-72
2022/07/10 10:22:04;;;;;;;5.07;2.20;;;21.90;59.70;;;;;;4878830;29;20029;-72
2022/07/10 10:24:33;;;;;;;4.15;2.05;;;21.90;59.60;;;;;;4877515;29;20029;-71
2022/07/10 10:27:00;;;;;;;4.07;2.20;;;21.90;59.60;;;;;;4877406;29;20104;-71
2022/07/10 10:29:27;;;;;;;4.32;2.30;;;21.90;59.60;;;;;;4878626;29;20029;-72
2022/07/10 10:31:53;;;;;;;4.55;1.98;;;21.90;59.60;;;;;;4878511;29;20041;-71
2022/07/10 10:34:42;;;;;;;5.53;2.17;;;21.90;59.70;;;;;;4878579;29;20111;-71
2022/07/10 10:37:33;;;;;;;4.10;2.30;;;21.90;59.60;;;;;;4879029;29;20371;-71
2022/07/10 10:39:59;;;;;;;5.32;2.20;;;21.90;59.60;;;;;;4876931;29;20048;-71
2022/07/10 10:42:44;;;;;;;4.50;2.55;;;21.90;59.60;;;;;;4878391;29;20036;-71
2022/07/10 10:45:31;;;;;;;4.18;2.05;;;21.90;59.50;;;;;;4877260;29;20494;-71
2022/07/10 10:48:08;;;;;;;5.05;2.10;;;21.90;59.50;;;;;;4861573;29;20064;-71
2022/07/10 10:50:45;;;;;;;6.18;2.28;;;21.90;59.50;;;;;;4878033;29;20049;-71
2022/07/10 10:53:27;;;;;;;3.28;1.92;;;21.90;59.60;;;;;;4877135;29;20446;-72
2022/07/10 10:56:02;;;;;;;3.13;2.00;;;21.90;59.60;;;;;;4878296;29;20043;-72
2022/07/10 10:58:40;;;;;;;5.22;2.10;;;21.90;59.60;;;;;;4876841;29;20451;-72
2022/07/10 11:01:28;;;;;;;4.32;2.28;;;21.80;59.60;;;;;;4876787;29;20037;-72
2022/07/10 11:04:09;;;;;;;5.43;2.05;;;21.90;59.70;;;;;;4876901;29;20085;-72
2022/07/10 11:06:51;;;;;;;5.80;2.30;;;21.80;59.60;;;;;;4861605;29;20029;-71
2022/07/10 11:09:33;;;;;;;4.20;2.20;;;21.90;59.60;;;;;;4877033;29;20033;-72
2022/07/10 11:12:09;;;;;;;4.38;2.13;;;21.80;59.50;;;;;;4877189;29;20037;-72
2022/07/10 11:14:37;;;;;;;4.68;2.15;;;21.80;59.60;;;;;;4878179;29;20116;-72
2022/07/10 11:17:04;;;;;;;4.43;2.15;;;21.80;59.70;;;;;;4877930;29;20406;-72
2022/07/10 11:19:32;;;;;;;4.57;2.22;;;21.80;59.70;;;;;;4876719;29;20036;-72
2022/07/10 11:22:21;;;;;;;6.78;2.42;;;21.90;59.70;;;;;;4876727;29;20157;-72
2022/07/10 11:25:24;;;;;;;4.43;2.10;;;21.80;59.70;;;;;;4877753;29;20041;-72
2022/07/10 11:28:13;;;;;;;5.15;2.05;;;21.90;59.70;;;;;;4877959;29;20021;-72
2022/07/10 11:30:54;;;;;;;4.78;2.00;;;21.90;59.60;;;;;;4877701;29;20101;-72
2022/07/10 11:33:21;;;;;;;4.05;2.33;;;21.90;59.60;;;;;;4876758;29;20064;-71
2022/07/10 11:35:49;;;;;;;4.95;2.00;;;21.80;59.50;;;;;;4876570;29;20037;-72
2022/07/10 11:38:25;;;;;;;4.38;2.25;;;21.90;59.60;;;;;;4877734;29;20399;-72
2022/07/10 11:40:54;;;;;;;4.10;1.85;;;21.80;59.60;;;;;;4861093;29;20406;-71
2022/07/10 11:43:23;;;;;;;3.67;1.95;;;21.90;59.70;;;;;;4877842;29;20057;-71
2022/07/10 11:45:50;;;;;;;4.90;2.20;;;21.90;59.60;;;;;;4877758;29;20478;-72
2022/07/10 11:48:23;;;;;;;4.03;1.90;;;21.80;59.60;;;;;;4877604;29;20401;-72
2022/07/10 11:50:49;;;;;;;5.07;2.20;;;21.80;59.60;;;;;;4877736;29;20033;-71
2022/07/10 11:53:23;;;;;;;5.47;2.30;;;21.90;59.60;;;;;;4877723;29;20120;-71
2022/07/10 11:55:49;;;;;;;4.55;2.30;;;21.90;59.60;;;;;;4876766;29;20124;-72
2022/07/10 11:58:19;;;;;;;4.40;2.20;;;21.80;59.60;;;;;;4876709;29;20092;-72
2022/07/10 12:01:07;;;;;;;3.40;1.90;;;21.80;59.60;;;;;;4891780;29;20085;-72
2022/07/10 12:03:33;;;;;;;6.78;2.22;;;21.90;59.60;;;;;;4876705;29;20093;-71
2022/07/10 12:06:06;;;;;;;3.95;1.90;;;21.80;59.60;;;;;;4876540;29;20486;-71
2022/07/10 12:08:47;;;;;;;4.68;1.73;;;21.80;59.60;;;;;;4876573;29;20029;-72
2022/07/10 12:11:19;;;;;;;3.05;1.80;;;21.80;59.60;;;;;;4879556;29;20065;-72
2022/07/10 12:13:47;;;;;;;4.18;2.00;;;21.80;59.80;;;;;;4881125;29;20037;-71
2022/07/10 12:16:13;;;;;;;5.82;2.10;;;21.90;59.50;;;;;;4864216;29;20458;-72
2022/07/10 12:18:41;;;;;;;3.90;1.98;;;21.90;59.80;;;;;;4879817;29;20093;-72
2022/07/10 12:21:10;;;;;;;6.47;2.35;;;21.90;59.50;;;;;;4880661;29;20037;-72
2022/07/10 12:23:39;;;;;;;4.50;2.20;;;21.90;59.50;;;;;;4880758;29;20040;-72
2022/07/10 12:26:08;;;;;;;3.92;2.22;;;21.90;59.40;;;;;;4879925;29;20113;-72
2022/07/10 12:28:52;;;;;;;3.47;2.00;;;21.90;59.40;;;;;;4880764;29;20493;-72
2022/07/10 12:31:22;;;;;;;4.72;1.73;;;21.90;59.50;;;;;;4880468;29;20029;-71
2022/07/10 12:33:57;;;;;;;6.43;2.70;;;21.90;59.30;;;;;;4864183;29;20486;-72
2022/07/10 12:36:24;;;;;;;4.80;2.05;;;21.90;59.50;;;;;;4880671;29;20040;-71
2022/07/10 12:39:00;;;;;;;5.03;2.30;;;21.90;59.30;;;;;;4880385;29;20037;-71
2022/07/10 12:41:26;;;;;;;4.55;2.13;;;21.90;59.40;;;;;;4880302;29;20486;-72
2022/07/10 12:43:53;;;;;;;5.95;2.25;;;21.90;59.40;;;;;;4879339;29;20151;-72
2022/07/10 12:46:24;;;;;;;4.15;1.92;;;21.90;59.30;;;;;;4879306;29;20029;-72
2022/07/10 12:49:09;;;;;;;5.15;2.40;;;21.90;59.30;;;;;;4864079;29;20029;-71
2022/07/10 12:51:49;;;;;;;5.25;2.30;;;21.90;59.50;;;;;;4878983;29;20029;-71
2022/07/10 12:54:34;;;;;;;4.45;2.10;;;21.90;59.30;;;;;;4880427;29;20074;-72
2022/07/10 12:57:00;;;;;;;2.95;1.70;;;21.90;59.50;;;;;;4879234;29;20040;-71
2022/07/10 12:59:28;;;;;;;4.38;2.25;;;21.90;59.60;;;;;;4880261;29;20033;-72
2022/07/10 13:01:54;;;;;;;4.90;2.33;;;21.90;59.40;;;;;;4880041;29;20108;-71
2022/07/10 13:04:24;;;;;;;6.10;2.35;;;21.90;59.60;;;;;;4880195;29;20494;-71
2022/07/10 13:06:50;;;;;;;4.88;1.92;;;21.90;59.50;;;;;;4880103;29;20056;-71
2022/07/10 13:09:23;;;;;;;4.95;2.30;;;21.90;59.50;;;;;;4894465;29;20517;-72